createdAt,value
2022-08-05T06:35:06.048Z,1007.30
2022-08-05T06:36:10.194Z,1007.36
2022-08-05T06:37:03.623Z,1007.41
2022-08-05T06:38:10.178Z,1007.43
2022-08-05T06:39:03.686Z,1007.43
2022-08-05T06:40:03.659Z,1007.40
2022-08-05T06:41:08.180Z,1007.43
2022-08-05T09:38:43.527Z,1007.95
2022-08-05T09:39:45.572Z,1008.05
2022-08-05T15:13:09.947Z,1011.01
2022-08-05T15:14:07.652Z,1011.03
2022-08-05T15:15:10.799Z,1011.04
2022-08-05T15:16:07.683Z,1011.04
2022-08-05T15:17:09.907Z,1011.01
2022-08-05T15:18:07.709Z,1011.04
2022-08-05T15:19:07.720Z,1011.09
2022-08-05T15:20:11.944Z,1011.08
2022-08-05T15:21:08.068Z,1011.12
2022-08-05T15:22:07.757Z,1011.21
2022-08-05T15:23:07.775Z,1011.20
2022-08-05T15:24:07.784Z,1011.14
2022-08-05T15:25:11.848Z,1011.16
2022-08-05T15:26:07.802Z,1011.21
2022-08-05T15:27:08.931Z,1011.21
2022-08-05T15:28:07.835Z,1011.19
2022-08-05T15:29:07.840Z,1011.20
2022-08-05T15:30:08.259Z,1011.23
2022-08-05T15:31:07.875Z,1011.23
2022-08-05T15:32:07.885Z,1011.23
2022-08-05T15:33:07.894Z,1011.21
2022-08-05T15:34:31.207Z,1011.27
2022-08-05T15:35:10.535Z,1011.29
2022-08-05T15:36:09.067Z,1011.37
2022-08-05T15:37:14.691Z,1011.34
2022-08-05T15:38:33.291Z,1011.37
2022-08-05T15:40:59.158Z,1011.41
2022-08-05T15:41:04.037Z,1011.43
2022-08-05T15:41:23.953Z,1011.52
2022-08-05T15:42:54.770Z,1011.51
2022-08-05T15:43:19.710Z,1011.51
2022-08-05T15:44:08.334Z,1011.50
2022-08-05T15:45:09.708Z,1011.52
2022-08-05T15:46:08.061Z,1011.50
2022-08-05T15:47:08.080Z,1011.47
2022-08-05T15:48:08.089Z,1011.45
2022-08-05T15:49:10.086Z,1011.42
2022-08-05T15:50:08.113Z,1011.47
2022-08-05T15:51:08.137Z,1011.49
2022-08-05T15:52:16.771Z,1011.56
2022-08-05T15:53:09.252Z,1011.55
2022-08-05T15:54:08.549Z,1011.51
2022-08-05T15:55:08.177Z,1011.48
2022-08-05T15:56:14.041Z,1011.44
2022-08-05T15:57:08.212Z,1011.43
2022-08-05T15:58:08.232Z,1011.52
2022-08-05T15:59:08.239Z,1011.51
2022-08-05T16:00:08.245Z,1011.53
2022-08-05T16:01:16.158Z,1011.52
2022-08-05T16:02:09.826Z,1011.56
2022-08-05T16:03:08.384Z,1011.60
2022-08-05T16:04:08.306Z,1011.64
2022-08-05T16:05:09.750Z,1011.65
2022-08-05T16:06:08.353Z,1011.69
2022-08-05T16:07:10.698Z,1011.67
2022-08-05T16:08:11.588Z,1011.63
2022-08-05T16:09:08.365Z,1011.68
2022-08-05T16:10:11.540Z,1011.70
2022-08-05T16:11:08.391Z,1011.77
2022-08-05T16:12:12.078Z,1011.82
2022-08-05T16:13:08.417Z,1011.82
2022-08-05T16:14:09.122Z,1011.81
2022-08-05T16:15:09.514Z,1011.80
2022-08-05T16:16:10.616Z,1011.85
2022-08-05T16:17:09.465Z,1011.82
2022-08-05T16:18:09.082Z,1011.86
2022-08-05T16:19:09.861Z,1011.89
2022-08-05T16:20:11.442Z,1011.92
2022-08-05T16:21:08.533Z,1011.90
2022-08-05T16:22:10.456Z,1011.89
2022-08-05T16:23:09.297Z,1011.95
2022-08-05T16:24:39.494Z,1011.97
2022-08-05T16:25:09.807Z,1011.99
2022-08-05T16:26:08.603Z,1012.02
2022-08-05T16:28:05.127Z,1012.00
2022-08-05T16:28:51.174Z,1012.00
2022-08-05T16:29:51.333Z,1012.03
2022-08-05T16:30:51.197Z,1012.01
2022-08-05T16:31:56.392Z,1011.97
2022-08-05T16:32:51.226Z,1011.99
2022-08-05T16:33:51.234Z,1012.01
2022-08-05T16:34:51.244Z,1012.03
2022-08-05T16:35:53.042Z,1012.11
2022-08-05T16:36:51.285Z,1012.10
2022-08-05T16:38:01.982Z,1012.10
2022-08-05T16:38:54.906Z,1012.12
2022-08-05T16:40:05.299Z,1012.11
2022-08-05T16:40:55.042Z,1012.09
2022-08-05T16:42:14.979Z,1012.17
2022-08-05T16:42:51.363Z,1012.10
2022-08-05T16:43:56.143Z,1012.15
2022-08-05T16:44:54.331Z,1012.14
2022-08-05T16:46:06.860Z,1012.19
2022-08-05T16:46:56.123Z,1012.16
2022-08-05T16:47:55.600Z,1012.13
2022-08-05T16:48:51.439Z,1012.14
2022-08-05T16:49:51.555Z,1012.14
2022-08-05T16:50:51.468Z,1012.15
2022-08-05T16:51:56.903Z,1012.17
2022-08-05T16:52:51.486Z,1012.16
2022-08-05T16:54:04.019Z,1012.17
2022-08-05T16:54:51.519Z,1012.17
2022-08-05T16:55:51.532Z,1012.15
2022-08-05T16:56:52.295Z,1012.20
2022-08-05T16:58:00.088Z,1012.20
2022-08-05T16:58:51.574Z,1012.20
2022-08-05T17:00:04.401Z,1012.21
2022-08-05T17:01:54.431Z,1012.22
2022-08-05T17:02:34.161Z,1012.18
2022-08-05T17:03:34.175Z,1012.19
2022-08-05T17:04:34.186Z,1012.17
2022-08-05T17:05:34.201Z,1012.22
2022-08-05T17:06:34.610Z,1012.25
2022-08-05T17:07:43.485Z,1012.26
2022-08-05T17:08:51.932Z,1012.23
2022-08-05T17:09:57.495Z,1012.24
2022-08-05T17:10:34.258Z,1012.20
2022-08-05T17:11:48.237Z,1012.15
2022-08-05T17:12:51.439Z,1012.20
2022-08-05T17:13:37.820Z,1012.16
2022-08-05T17:14:37.137Z,1012.15
2022-08-05T17:15:48.562Z,1012.12
2022-08-05T17:16:36.453Z,1012.14
2022-08-05T17:18:16.900Z,1012.15
2022-08-05T17:19:16.918Z,1012.17
2022-08-05T17:20:19.548Z,1012.17
2022-08-05T17:21:59.487Z,1012.25
2022-08-05T17:22:59.505Z,1012.24
2022-08-05T17:24:04.569Z,1012.26
2022-08-05T17:25:00.263Z,1012.30
2022-08-05T17:25:59.537Z,1012.30
2022-08-05T17:26:59.558Z,1012.30
2022-08-05T17:27:59.570Z,1012.29
2022-08-05T17:28:59.581Z,1012.32
2022-08-05T17:30:02.244Z,1012.28
2022-08-05T17:30:59.611Z,1012.28
2022-08-05T17:31:59.671Z,1012.30
2022-08-05T17:32:59.630Z,1012.30
2022-08-05T17:33:59.654Z,1012.31
2022-08-05T17:34:59.657Z,1012.31
2022-08-05T17:36:08.369Z,1012.32
2022-08-05T17:36:59.756Z,1012.34
2022-08-05T17:38:00.729Z,1012.37
2022-08-05T17:38:59.779Z,1012.37
2022-08-05T17:40:00.078Z,1012.44
2022-08-05T17:40:59.741Z,1012.38
2022-08-05T17:42:17.844Z,1012.44
2022-08-05T17:42:59.762Z,1012.43
2022-08-05T17:43:59.782Z,1012.45
2022-08-05T17:44:59.924Z,1012.45
2022-08-05T17:45:59.801Z,1012.46
2022-08-05T17:46:59.816Z,1012.45
2022-08-05T17:47:59.836Z,1012.51
2022-08-05T17:48:59.838Z,1012.53
2022-08-05T17:50:10.440Z,1012.52
2022-08-05T17:50:59.868Z,1012.55
2022-08-05T17:51:59.879Z,1012.58
2022-08-05T17:53:00.099Z,1012.57
2022-08-05T17:53:59.903Z,1012.54
2022-08-05T17:54:59.926Z,1012.58
2022-08-05T17:55:59.937Z,1012.58
2022-08-05T17:56:59.944Z,1012.59
2022-08-05T17:57:59.964Z,1012.67
2022-08-05T17:58:59.972Z,1012.66
2022-08-05T18:00:05.159Z,1012.71
2022-08-05T18:01:00.001Z,1012.73
2022-08-05T18:02:00.018Z,1012.76
2022-08-05T18:03:00.029Z,1012.76
2022-08-05T18:04:04.412Z,1012.75
2022-08-05T18:05:00.185Z,1012.80
2022-08-05T18:06:01.856Z,1012.79
2022-08-05T18:07:00.543Z,1012.78
2022-08-05T18:08:00.092Z,1012.79
2022-08-05T18:09:00.097Z,1012.77
2022-08-05T18:10:08.768Z,1012.79
2022-08-05T18:11:00.128Z,1012.80
2022-08-05T18:12:00.143Z,1012.80
2022-08-05T18:13:00.146Z,1012.82
2022-08-05T18:14:00.167Z,1012.85
2022-08-05T18:15:00.186Z,1012.87
2022-08-05T18:16:00.194Z,1012.88
2022-08-05T18:17:00.203Z,1012.93
2022-08-05T18:18:05.648Z,1012.98
2022-08-05T18:19:00.229Z,1012.95
2022-08-05T18:20:00.242Z,1012.99
2022-08-05T18:21:00.248Z,1013.04
2022-08-05T18:22:07.605Z,1013.00
2022-08-05T18:23:00.563Z,1013.05
2022-08-05T18:24:00.288Z,1013.08
2022-08-05T18:25:00.308Z,1013.10
2022-08-05T18:26:00.342Z,1013.11
2022-08-05T18:27:00.330Z,1013.09
2022-08-05T18:28:01.690Z,1013.08
2022-08-05T18:29:00.351Z,1013.08
2022-08-05T18:30:00.367Z,1013.07
2022-08-05T18:31:00.373Z,1013.10
2022-08-05T18:32:00.388Z,1013.08
2022-08-05T18:33:01.012Z,1013.06
2022-08-05T18:34:00.414Z,1013.11
2022-08-05T18:35:00.430Z,1013.09
2022-08-05T18:36:06.948Z,1013.10
2022-08-05T18:37:00.448Z,1013.13
2022-08-05T18:38:00.469Z,1013.18
2022-08-05T18:39:00.545Z,1013.14
2022-08-05T18:40:34.235Z,1013.18
2022-08-05T18:41:53.594Z,1013.16
2022-08-05T18:42:06.178Z,1013.15
2022-08-05T18:43:00.530Z,1013.17
2022-08-05T18:44:05.752Z,1013.18
2022-08-05T18:45:00.548Z,1013.19
2022-08-05T18:46:00.568Z,1013.21
2022-08-05T18:47:00.579Z,1013.18
2022-08-05T18:48:00.596Z,1013.23
2022-08-05T18:49:00.607Z,1013.21
2022-08-05T18:50:00.640Z,1013.21
2022-08-05T18:51:01.633Z,1013.20
2022-08-05T18:52:04.052Z,1013.25
2022-08-05T18:53:00.656Z,1013.22
2022-08-05T18:54:00.659Z,1013.28
2022-08-05T18:55:00.681Z,1013.28
2022-08-05T18:56:00.684Z,1013.20
2022-08-05T18:57:01.191Z,1013.18
2022-08-05T18:58:03.279Z,1013.20
2022-08-05T18:59:01.374Z,1013.23
2022-08-05T19:00:02.578Z,1013.21
2022-08-05T19:01:01.383Z,1013.23
2022-08-05T19:02:00.801Z,1013.27
2022-08-05T19:03:03.766Z,1013.31
2022-08-05T19:04:00.787Z,1013.30
2022-08-05T19:05:02.614Z,1013.32
2022-08-05T19:06:11.562Z,1013.35
2022-08-05T19:07:00.819Z,1013.42
2022-08-05T19:08:00.840Z,1013.41
2022-08-05T19:09:01.495Z,1013.42
2022-08-05T19:10:00.860Z,1013.43
2022-08-05T19:11:04.428Z,1013.43
2022-08-05T19:12:01.588Z,1013.44
2022-08-05T19:13:00.896Z,1013.49
2022-08-05T19:14:11.091Z,1013.48
2022-08-05T19:15:02.671Z,1013.49
2022-08-05T19:16:47.077Z,1013.50
2022-08-05T19:19:53.669Z,1013.62
2022-08-05T19:24:17.125Z,1013.76
2022-08-05T19:26:08.513Z,1013.76
2022-08-05T19:33:48.656Z,1013.87
2022-08-05T19:34:55.076Z,1013.92
2022-08-05T19:43:04.749Z,1014.06
2022-08-05T19:45:14.436Z,1014.08
2022-08-05T19:46:16.908Z,1014.08
2022-08-05T19:49:57.614Z,1014.12
2022-08-05T19:58:53.477Z,1014.19
2022-08-05T20:02:48.772Z,1014.19
2022-08-05T20:03:48.778Z,1014.17
2022-08-05T20:04:48.787Z,1014.19
2022-08-05T20:05:51.420Z,1014.21
2022-08-05T20:06:48.810Z,1014.19
2022-08-05T20:07:49.299Z,1014.22
2022-08-05T20:08:49.004Z,1014.24
2022-08-05T20:09:54.616Z,1014.24
2022-08-05T20:10:49.677Z,1014.27
2022-08-05T20:11:48.877Z,1014.30
2022-08-05T20:12:49.340Z,1014.29
2022-08-05T20:13:54.731Z,1014.32
2022-08-05T20:14:48.946Z,1014.35
2022-08-05T20:15:55.883Z,1014.33
2022-08-05T20:16:48.931Z,1014.32
2022-08-05T20:17:48.944Z,1014.35
2022-08-05T20:18:55.420Z,1014.31
2022-08-05T20:19:48.960Z,1014.35
2022-08-05T20:20:48.979Z,1014.38
2022-08-05T20:21:48.992Z,1014.37
2022-08-05T20:22:48.992Z,1014.41
2022-08-05T20:23:53.075Z,1014.40
2022-08-05T20:24:49.015Z,1014.43
2022-08-05T20:25:49.128Z,1014.48
2022-08-05T20:26:49.041Z,1014.50
2022-08-05T20:27:49.050Z,1014.52
2022-08-05T20:28:49.061Z,1014.54
2022-08-05T20:29:52.249Z,1014.51
2022-08-05T20:30:49.090Z,1014.51
2022-08-05T20:31:52.133Z,1014.57
2022-08-05T20:32:49.112Z,1014.57
2022-08-05T20:33:49.126Z,1014.59
2022-08-05T20:34:49.132Z,1014.66
2022-08-05T20:35:49.147Z,1014.66
2022-08-05T20:36:49.150Z,1014.76
2022-08-05T20:38:06.332Z,1014.73
2022-08-05T20:38:54.449Z,1014.80
2022-08-05T20:39:51.458Z,1014.78
2022-08-05T20:40:50.539Z,1014.82
2022-08-05T20:41:49.208Z,1014.84
2022-08-05T20:42:49.220Z,1014.86
2022-08-05T20:43:59.683Z,1014.83
2022-08-05T20:44:49.250Z,1014.84
2022-08-05T20:45:56.690Z,1014.88
2022-08-05T20:46:49.264Z,1014.88
2022-08-05T20:47:49.285Z,1014.89
2022-08-05T20:48:51.130Z,1014.92
2022-08-05T20:49:51.309Z,1014.89
2022-08-05T20:50:49.320Z,1014.93
2022-08-05T20:51:53.741Z,1014.93
2022-08-05T20:52:49.340Z,1014.97
2022-08-05T20:53:56.761Z,1014.97
2022-08-05T20:54:59.367Z,1014.98
2022-08-05T20:56:07.886Z,1014.97
2022-08-05T20:56:49.383Z,1014.95
2022-08-05T20:57:49.387Z,1014.93
2022-08-05T20:58:51.851Z,1014.95
2022-08-05T21:00:21.177Z,1014.98
2022-08-05T21:00:54.353Z,1015.01
2022-08-05T21:01:49.539Z,1015.07
2022-08-05T21:02:52.149Z,1015.04
2022-08-05T21:03:49.465Z,1015.08
2022-08-05T21:04:49.466Z,1015.12
2022-08-05T21:05:54.361Z,1015.15
2022-08-05T21:06:49.495Z,1015.12
2022-08-05T21:07:52.240Z,1015.15
2022-08-05T21:08:49.511Z,1015.17
2022-08-05T21:09:53.250Z,1015.17
2022-08-05T21:10:49.538Z,1015.22
2022-08-05T21:12:07.726Z,1015.21
2022-08-05T21:13:08.290Z,1015.24
2022-08-05T21:13:56.776Z,1015.28
2022-08-05T21:14:49.584Z,1015.29
2022-08-05T21:15:51.094Z,1015.31
2022-08-05T21:16:49.603Z,1015.35
2022-08-05T21:17:49.616Z,1015.35
2022-08-05T21:18:49.616Z,1015.39
2022-08-05T21:19:50.591Z,1015.40
2022-08-05T21:20:49.648Z,1015.42
2022-08-05T21:21:50.820Z,1015.42
2022-08-05T21:22:49.668Z,1015.45
2022-08-05T21:23:49.681Z,1015.45
2022-08-05T21:24:51.585Z,1015.49
2022-08-05T21:25:49.703Z,1015.48
2022-08-05T21:26:53.365Z,1015.50
2022-08-05T21:27:52.708Z,1015.54
2022-08-05T21:28:51.034Z,1015.53
2022-08-05T21:29:50.914Z,1015.51
2022-08-05T21:30:49.748Z,1015.51
2022-08-05T21:31:49.757Z,1015.53
2022-08-05T21:32:49.769Z,1015.54
2022-08-05T21:33:49.821Z,1015.52
2022-08-05T21:35:07.009Z,1015.57
2022-08-05T21:35:58.692Z,1015.55
2022-08-05T21:36:49.811Z,1015.60
2022-08-05T21:37:53.266Z,1015.59
2022-08-05T21:38:49.841Z,1015.62
2022-08-05T21:39:49.911Z,1015.68
2022-08-05T21:40:49.857Z,1015.66
2022-08-05T21:41:52.799Z,1015.69
2022-08-05T21:42:52.087Z,1015.71
2022-08-05T21:44:01.848Z,1015.71
2022-08-05T21:44:49.905Z,1015.76
2022-08-05T21:45:56.682Z,1015.76
2022-08-05T21:46:49.919Z,1015.77
2022-08-05T21:47:56.456Z,1015.78
2022-08-05T21:48:49.941Z,1015.79
2022-08-05T21:50:01.292Z,1015.80
2022-08-05T21:50:53.216Z,1015.82
2022-08-05T21:52:22.676Z,1015.82
2022-08-05T21:52:49.986Z,1015.84
2022-08-05T21:53:56.801Z,1015.87
2022-08-05T21:54:51.230Z,1015.86
2022-08-05T21:56:05.809Z,1015.90
2022-08-05T21:56:51.530Z,1015.92
2022-08-05T21:57:50.034Z,1015.95
2022-08-05T21:58:57.761Z,1015.96
2022-08-05T22:00:06.159Z,1015.93
2022-08-05T22:00:51.476Z,1015.95
2022-08-05T22:01:50.079Z,1015.94
2022-08-05T22:02:50.088Z,1015.91
2022-08-05T22:03:53.054Z,1015.88
2022-08-05T22:04:50.115Z,1015.80
2022-08-05T22:05:50.124Z,1015.83
2022-08-05T22:06:50.502Z,1015.76
2022-08-05T22:07:58.417Z,1015.81
2022-08-05T22:08:51.838Z,1015.80
2022-08-05T22:09:50.175Z,1015.78
2022-08-05T22:10:50.180Z,1015.84
2022-08-05T22:11:50.184Z,1015.84
2022-08-05T22:12:50.681Z,1015.84
2022-08-05T22:14:32.445Z,1015.88
2022-08-05T22:14:50.213Z,1015.91
2022-08-05T22:16:01.845Z,1015.87
2022-08-05T22:16:51.199Z,1015.95
2022-08-05T22:17:59.835Z,1015.96
2022-08-05T22:18:50.261Z,1016.00
2022-08-05T22:20:01.523Z,1016.03
2022-08-05T22:20:51.566Z,1016.02
2022-08-05T22:21:50.287Z,1015.98
2022-08-05T22:22:50.298Z,1015.98
2022-08-05T22:24:01.900Z,1016.00
2022-08-05T22:24:52.070Z,1016.02
2022-08-05T22:26:10.773Z,1015.98
2022-08-05T22:26:50.491Z,1016.05
2022-08-05T22:28:09.415Z,1016.08
2022-08-05T22:28:50.368Z,1016.07
2022-08-05T22:29:54.300Z,1016.06
2022-08-05T22:30:56.816Z,1016.11
2022-08-05T22:31:55.131Z,1016.14
2022-08-05T22:32:50.400Z,1016.19
2022-08-05T22:33:57.519Z,1016.23
2022-08-05T22:34:50.422Z,1016.28
2022-08-05T22:35:50.440Z,1016.32
2022-08-05T22:36:50.440Z,1016.33
2022-08-05T22:37:59.353Z,1016.32
2022-08-05T22:38:50.473Z,1016.33
2022-08-05T22:39:50.737Z,1016.33
2022-08-05T22:40:54.854Z,1016.31
2022-08-05T22:42:11.436Z,1016.39
2022-08-05T22:42:57.751Z,1016.39
2022-08-05T22:43:50.521Z,1016.36
2022-08-05T22:44:56.303Z,1016.36
2022-08-05T22:45:50.532Z,1016.35
2022-08-05T22:46:50.551Z,1016.37
2022-08-05T22:47:50.554Z,1016.33
2022-08-05T22:48:50.569Z,1016.32
2022-08-05T22:50:20.000Z,1016.35
2022-08-05T22:50:56.259Z,1016.40
2022-08-05T22:52:06.643Z,1016.46
2022-08-05T22:52:51.434Z,1016.48
2022-08-05T22:53:50.623Z,1016.50
2022-08-05T22:54:50.624Z,1016.55
2022-08-05T22:55:57.208Z,1016.55
2022-08-05T22:56:50.650Z,1016.53
2022-08-05T22:57:50.655Z,1016.55
2022-08-05T22:58:50.665Z,1016.58
2022-08-05T22:59:54.105Z,1016.57
2022-08-05T23:00:50.694Z,1016.58
2022-08-05T23:02:05.810Z,1016.58
2022-08-05T23:02:50.857Z,1016.53
2022-08-05T23:03:58.100Z,1016.50
2022-08-05T23:04:51.531Z,1016.53
2022-08-05T23:05:50.737Z,1016.54
2022-08-05T23:06:50.752Z,1016.54
2022-08-05T23:07:50.832Z,1016.52
2022-08-05T23:08:52.267Z,1016.52
2022-08-05T23:09:53.392Z,1016.54
2022-08-05T23:10:55.953Z,1016.58
2022-08-05T23:11:50.802Z,1016.61
2022-08-05T23:12:51.226Z,1016.60
2022-08-05T23:13:51.606Z,1016.62
2022-08-05T23:14:50.826Z,1016.61
2022-08-05T23:15:50.838Z,1016.58
2022-08-05T23:16:52.073Z,1016.59
2022-08-05T23:18:00.645Z,1016.58
2022-08-05T23:18:50.874Z,1016.61
2022-08-05T23:19:56.094Z,1016.59
2022-08-05T23:20:50.894Z,1016.57
2022-08-05T23:21:50.895Z,1016.58
2022-08-05T23:22:50.907Z,1016.58
2022-08-05T23:23:50.914Z,1016.55
2022-08-05T23:24:51.309Z,1016.54
2022-08-05T23:25:55.203Z,1016.55
2022-08-05T23:26:50.946Z,1016.56
2022-08-05T23:28:00.190Z,1016.55
2022-08-05T23:28:50.972Z,1016.58
2022-08-05T23:29:50.975Z,1016.60
2022-08-05T23:30:53.397Z,1016.57
2022-08-05T23:31:51.007Z,1016.64
2022-08-05T23:32:51.003Z,1016.63
2022-08-05T23:34:04.915Z,1016.66
2022-08-05T23:34:51.032Z,1016.66
2022-08-05T23:35:51.062Z,1016.69
2022-08-05T23:36:51.050Z,1016.69
2022-08-05T23:37:51.053Z,1016.71
2022-08-05T23:38:51.253Z,1016.74
2022-08-05T23:39:54.583Z,1016.77
2022-08-05T23:40:52.587Z,1016.79
2022-08-05T23:41:51.093Z,1016.77
2022-08-05T23:42:53.731Z,1016.84
2022-08-05T23:44:04.874Z,1016.78
2022-08-05T23:44:54.535Z,1016.81
2022-08-05T23:45:51.132Z,1016.86
2022-08-05T23:46:51.142Z,1016.87
2022-08-05T23:47:53.864Z,1016.90
2022-08-05T23:48:59.817Z,1016.88
2022-08-05T23:49:52.118Z,1016.94
2022-08-05T23:50:51.183Z,1016.99
2022-08-05T23:51:53.406Z,1017.02
2022-08-05T23:52:51.218Z,1017.05
2022-08-05T23:53:51.212Z,1016.99
2022-08-05T23:54:51.219Z,1017.07
2022-08-05T23:55:51.238Z,1017.07
2022-08-05T23:56:51.246Z,1017.10
2022-08-05T23:57:52.906Z,1017.13
2022-08-05T23:58:51.267Z,1017.13
